X  Schlie├čen METAR Luftfahrt Wetterdaten     EDVE Braunschweig-Wolfsburg Airport
Temperatur
20°C Temperatur
10°C Taupunkt
53% Feuchtigkeit



Wind
11 KM/S
7 MPS
3 M/S
6 KTS



150°
SSO
Aktuelle Wetterlage

Klar Klar
Luftdruck 1003.92 (hPa) - 29.65 (inHg)
Sichtweite 6.2 (Meile) - 10 (Km)
Flughafen
Flughafen Code EDVE

Position : Braunschweig-Wolfsburg Airport
Entfernung: 35 (Km)

Metar:
EDVE 092220Z AUTO 15006KT 9999 // NCD 20/10 Q1004

Zeit: 10-05-2021 00:20 CEST